createdAt,value
2023-01-08T00:01:15.352Z,95993.38
2023-01-08T00:03:43.942Z,95991.03
2023-01-08T00:06:15.330Z,95992.16
2023-01-08T00:08:44.073Z,95988.44
2023-01-08T00:11:12.847Z,95998.28
2023-01-08T00:13:41.529Z,95982.78
2023-01-08T00:16:14.637Z,95978.03
2023-01-08T00:18:43.094Z,95971.56
2023-01-08T00:21:12.922Z,95969.41
2023-01-08T00:23:41.345Z,95973.41
2023-01-08T00:26:11.205Z,95967.66
2023-01-08T00:28:40.008Z,95966.78
2023-01-08T00:31:10.815Z,95946.53
2023-01-08T00:33:39.871Z,95949.78
2023-01-08T00:36:09.288Z,95945.47
2023-01-08T00:38:39.133Z,95941.66
2023-01-08T00:41:07.765Z,95945.97
2023-01-08T00:43:36.153Z,95939.78
2023-01-08T00:46:04.976Z,95937.41
2023-01-08T00:48:37.280Z,95934.28
2023-01-08T00:51:06.896Z,95932.41
2023-01-08T00:53:35.604Z,95936.78
2023-01-08T00:56:08.281Z,95936.22
2023-01-08T00:58:36.598Z,95931.09
2023-01-08T01:01:10.934Z,95932.59
2023-01-08T01:03:39.302Z,95935.63
2023-01-08T01:06:08.416Z,95935.63
2023-01-08T01:08:36.758Z,95932.50
2023-01-08T01:11:09.286Z,95927.84
2023-01-08T01:13:37.660Z,95926.94
2023-01-08T01:16:06.738Z,95933.69
2023-01-08T01:18:35.024Z,95927.13
2023-01-08T01:21:03.453Z,95927.78
2023-01-08T01:23:31.668Z,95922.97
2023-01-08T01:25:59.991Z,95929.69
2023-01-08T01:28:29.662Z,95931.59
2023-01-08T01:30:58.485Z,95925.09
2023-01-08T01:33:26.786Z,95928.03
2023-01-08T01:36:02.111Z,95931.06
2023-01-08T01:38:30.738Z,95932.53
2023-01-08T01:40:59.197Z,95925.47
2023-01-08T01:43:42.440Z,95919.31
2023-01-08T01:46:20.180Z,95927.34
2023-01-08T01:48:51.555Z,95936.22
2023-01-08T01:51:20.423Z,95934.13
2023-01-08T01:53:49.370Z,95943.28
2023-01-08T01:56:17.700Z,95942.38
2023-01-08T01:58:47.308Z,95938.31
2023-01-08T02:01:15.699Z,95938.13
2023-01-08T02:03:44.122Z,95928.53
2023-01-08T02:06:18.463Z,95918.75
2023-01-08T02:08:53.393Z,95908.97
2023-01-08T02:11:24.719Z,95901.19
2023-01-08T02:13:56.964Z,95904.88
2023-01-08T02:16:28.852Z,95907.06
2023-01-08T02:18:59.600Z,95908.66
2023-01-08T02:21:33.065Z,95904.19
2023-01-08T02:24:04.448Z,95894.13
2023-01-08T02:26:35.429Z,95895.22
2023-01-08T02:29:06.482Z,95895.69
2023-01-08T02:31:36.604Z,95892.09
2023-01-08T02:34:05.282Z,95878.66
2023-01-08T02:36:37.033Z,95870.47
2023-01-08T02:39:36.092Z,95872.09
2023-01-08T02:42:10.076Z,95872.47
2023-01-08T02:44:49.169Z,95863.19
2023-01-08T02:47:24.998Z,95864.34
2023-01-08T02:49:58.970Z,95856.63
2023-01-08T02:52:30.436Z,95854.91
2023-01-08T02:55:00.661Z,95854.22
2023-01-08T02:57:31.501Z,95862.94
2023-01-08T02:59:59.825Z,95877.50
2023-01-08T03:02:32.141Z,95868.59
2023-01-08T03:05:04.591Z,95851.94
2023-01-08T03:07:33.323Z,95861.84
2023-01-08T03:10:02.032Z,95864.19
2023-01-08T03:12:42.087Z,95861.72
2023-01-08T03:15:14.654Z,95857.72
2023-01-08T03:17:50.782Z,95854.13
2023-01-08T03:20:29.599Z,95841.06
2023-01-08T03:23:00.639Z,95846.69
2023-01-08T03:25:29.978Z,95842.22
2023-01-08T03:28:03.242Z,95839.44
2023-01-08T03:30:32.228Z,95843.03
2023-01-08T03:33:01.764Z,95839.38
2023-01-08T03:35:30.848Z,95831.19
2023-01-08T03:38:06.229Z,95832.13
2023-01-08T03:40:38.573Z,95821.53
2023-01-08T03:43:08.212Z,95823.56
2023-01-08T03:45:38.367Z,95833.22
2023-01-08T03:48:07.574Z,95826.47
2023-01-08T03:50:35.932Z,95825.63
2023-01-08T03:53:04.385Z,95814.94
2023-01-08T03:55:32.648Z,95816.06
2023-01-08T03:58:01.002Z,95802.88
2023-01-08T04:00:30.853Z,95796.97
2023-01-08T04:02:59.254Z,95791.59
2023-01-08T04:05:27.532Z,95784.72
2023-01-08T04:07:56.511Z,95779.59
2023-01-08T04:10:25.348Z,95770.63
2023-01-08T04:12:53.743Z,95770.19
2023-01-08T04:15:22.119Z,95773.72
2023-01-08T04:17:51.831Z,95772.63
2023-01-08T04:20:20.257Z,95777.41
2023-01-08T04:22:48.644Z,95776.19
2023-01-08T04:25:17.029Z,95783.19
2023-01-08T04:27:45.343Z,95788.22
2023-01-08T04:30:14.395Z,95790.09
2023-01-08T04:32:42.746Z,95783.81
2023-01-08T04:35:12.556Z,95777.53
2023-01-08T04:37:41.035Z,95778.09
2023-01-08T04:40:10.853Z,95772.47
2023-01-08T04:42:39.190Z,95763.91
2023-01-08T04:45:08.768Z,95759.25
2023-01-08T04:47:37.155Z,95758.00
2023-01-08T04:50:05.992Z,95760.16
2023-01-08T04:52:35.776Z,95757.38
2023-01-08T04:55:04.635Z,95751.41
2023-01-08T04:57:33.110Z,95747.84
2023-01-08T05:00:01.483Z,95738.09
2023-01-08T05:02:30.001Z,95747.34
2023-01-08T05:04:58.695Z,95739.75
2023-01-08T05:07:27.128Z,95738.09
2023-01-08T05:09:56.854Z,95740.97
2023-01-08T05:12:25.173Z,95737.00
2023-01-08T05:14:53.711Z,95748.28
2023-01-08T05:17:22.120Z,95754.78
2023-01-08T05:19:50.453Z,95746.88
2023-01-08T05:22:18.743Z,95743.03
2023-01-08T05:24:47.054Z,95753.13
2023-01-08T05:27:16.719Z,95744.78
2023-01-08T05:29:44.972Z,95754.91
2023-01-08T05:32:16.254Z,95750.44
2023-01-08T05:34:44.729Z,95742.78
2023-01-08T05:37:13.479Z,95738.72
2023-01-08T05:39:41.870Z,95726.88
2023-01-08T05:42:10.177Z,95724.91
2023-01-08T05:44:39.903Z,95707.94
2023-01-08T05:47:08.255Z,95714.38
2023-01-08T05:49:36.555Z,95715.03
2023-01-08T05:52:05.893Z,95717.06
2023-01-08T05:54:34.279Z,95716.44
2023-01-08T05:57:02.596Z,95719.75
2023-01-08T05:59:30.879Z,95728.09
2023-01-08T06:02:00.580Z,95723.94
2023-01-08T06:04:29.125Z,95716.59
2023-01-08T06:06:57.467Z,95717.25
2023-01-08T06:09:25.780Z,95728.06
2023-01-08T06:11:54.173Z,95743.91
2023-01-08T06:14:22.483Z,95744.81
2023-01-08T06:16:50.874Z,95743.84
2023-01-08T06:19:20.852Z,95737.31
2023-01-08T06:21:49.142Z,95740.00
2023-01-08T06:24:17.477Z,95736.69
2023-01-08T06:26:45.821Z,95743.69
2023-01-08T06:29:14.069Z,95750.03
2023-01-08T06:31:42.452Z,95750.72
2023-01-08T06:34:10.825Z,95744.94
2023-01-08T06:36:40.662Z,95743.81
2023-01-08T06:39:09.542Z,95732.75
2023-01-08T06:41:37.839Z,95728.81
2023-01-08T06:44:06.349Z,95728.78
2023-01-08T06:46:38.303Z,95738.94
2023-01-08T06:49:06.630Z,95739.28
2023-01-08T06:51:35.016Z,95741.13
2023-01-08T06:54:05.098Z,95740.47
2023-01-08T06:56:42.721Z,95746.28
2023-01-08T06:59:20.797Z,95747.53
2023-01-08T07:01:49.822Z,95742.69
2023-01-08T07:04:18.349Z,95744.78
2023-01-08T07:06:46.710Z,95761.09
2023-01-08T07:09:17.042Z,95749.78
2023-01-08T07:11:45.334Z,95747.56
2023-01-08T07:14:13.607Z,95750.38
2023-01-08T07:16:41.865Z,95741.47
2023-01-08T07:19:10.297Z,95745.41
2023-01-08T07:21:38.558Z,95754.91
2023-01-08T07:24:07.704Z,95747.72
2023-01-08T07:26:39.576Z,95752.47
2023-01-08T07:29:08.086Z,95742.09
2023-01-08T07:31:36.499Z,95747.09
2023-01-08T07:34:05.095Z,95744.72
2023-01-08T07:36:33.443Z,95752.44
2023-01-08T07:39:01.683Z,95751.00
2023-01-08T07:41:29.911Z,95734.97
2023-01-08T07:43:59.549Z,95730.09
2023-01-08T07:46:27.831Z,95735.50
2023-01-08T07:48:57.132Z,95732.75
2023-01-08T07:51:25.428Z,95723.03
2023-01-08T07:53:56.179Z,95721.13
2023-01-08T07:56:25.185Z,95727.50
2023-01-08T07:58:53.560Z,95728.06
2023-01-08T08:01:24.053Z,95730.13
2023-01-08T08:03:52.230Z,95727.66
2023-01-08T08:06:20.418Z,95738.84
2023-01-08T08:08:48.814Z,95733.25
2023-01-08T08:11:17.136Z,95728.47
2023-01-08T08:13:46.154Z,95720.47
2023-01-08T08:16:14.462Z,95733.72
2023-01-08T08:18:44.081Z,95733.97
2023-01-08T08:21:12.312Z,95721.56
2023-01-08T08:23:40.557Z,95727.91
2023-01-08T08:26:08.781Z,95740.34
2023-01-08T08:28:37.014Z,95729.63
2023-01-08T08:31:05.487Z,95739.06
2023-01-08T08:33:33.885Z,95736.97
2023-01-08T08:36:03.588Z,95746.44
2023-01-08T08:38:31.792Z,95743.44
2023-01-08T08:41:00.140Z,95732.22
2023-01-08T08:43:28.601Z,95733.34
2023-01-08T08:45:57.037Z,95728.31
2023-01-08T08:48:25.607Z,95720.44
2023-01-08T08:50:53.884Z,95724.28
2023-01-08T08:53:23.548Z,95732.22
2023-01-08T08:55:51.784Z,95735.13
2023-01-08T08:58:20.076Z,95730.38
2023-01-08T09:00:48.365Z,95737.41
2023-01-08T09:03:17.026Z,95730.00
2023-01-08T09:05:45.373Z,95724.69
2023-01-08T09:08:13.872Z,95720.59
2023-01-08T09:10:43.718Z,95731.69
2023-01-08T09:13:12.420Z,95719.53
2023-01-08T09:15:40.953Z,95718.75
2023-01-08T09:18:09.221Z,95721.00
2023-01-08T09:20:37.473Z,95729.84
2023-01-08T09:23:07.095Z,95729.97
2023-01-08T09:25:35.366Z,95723.84
2023-01-08T09:28:06.709Z,95736.13
2023-01-08T09:30:35.108Z,95730.31
2023-01-08T09:33:04.766Z,95738.69
2023-01-08T09:35:33.198Z,95739.63
2023-01-08T09:38:01.587Z,95739.97
2023-01-08T09:40:33.592Z,95733.34
2023-01-08T09:43:02.673Z,95730.78
2023-01-08T09:45:33.739Z,95728.56
2023-01-08T09:48:05.075Z,95728.56
2023-01-08T09:50:33.375Z,95719.94
2023-01-08T09:53:02.014Z,95721.38
2023-01-08T09:55:31.174Z,95728.47
2023-01-08T09:58:03.060Z,95732.06
2023-01-08T10:00:35.097Z,95713.38
2023-01-08T10:03:03.537Z,95701.50
2023-01-08T10:05:31.873Z,95693.28
2023-01-08T10:08:00.202Z,95674.38
2023-01-08T10:10:30.694Z,95665.47
2023-01-08T10:12:59.637Z,95674.66
2023-01-08T10:15:27.879Z,95658.41
2023-01-08T10:18:01.187Z,95660.63
2023-01-08T10:20:30.654Z,95671.31
2023-01-08T10:23:10.320Z,95672.50
2023-01-08T10:25:50.000Z,95672.50
2023-01-08T10:28:21.963Z,95668.19
2023-01-08T10:30:51.589Z,95671.47
2023-01-08T10:33:22.767Z,95683.22
2023-01-08T10:35:56.177Z,95669.84
2023-01-08T10:38:33.185Z,95689.69
2023-01-08T10:41:02.721Z,95678.91
2023-01-08T10:43:33.525Z,95667.44
2023-01-08T10:46:03.147Z,95663.41
2023-01-08T10:48:35.898Z,95667.81
2023-01-08T10:51:08.617Z,95661.47
2023-01-08T10:53:36.989Z,95640.75
2023-01-08T10:56:06.117Z,95628.22
2023-01-08T10:58:42.755Z,95631.53
2023-01-08T11:01:12.564Z,95624.06
2023-01-08T11:03:42.678Z,95631.22
2023-01-08T11:06:15.019Z,95637.88
2023-01-08T11:08:51.724Z,95637.75
2023-01-08T11:11:20.339Z,95639.28
2023-01-08T11:13:57.790Z,95649.28
2023-01-08T11:16:33.099Z,95656.81
2023-01-08T11:19:02.738Z,95664.44
2023-01-08T11:21:32.684Z,95657.81
2023-01-08T11:24:10.878Z,95642.72
2023-01-08T11:26:41.767Z,95640.28
2023-01-08T11:29:14.608Z,95646.16
2023-01-08T11:31:45.466Z,95635.50
2023-01-08T11:34:17.829Z,95625.75
2023-01-08T11:36:50.525Z,95604.13
2023-01-08T11:39:19.006Z,95599.69
2023-01-08T11:42:01.712Z,95593.28
2023-01-08T11:44:40.680Z,95582.38
2023-01-08T11:47:16.235Z,95575.69
2023-01-08T11:50:02.632Z,95581.59
2023-01-08T11:52:44.436Z,95572.66
2023-01-08T11:55:24.177Z,95572.19
2023-01-08T11:58:02.987Z,95568.19
2023-01-08T12:00:42.993Z,95561.66
2023-01-08T12:03:18.543Z,95551.94
2023-01-08T12:05:51.450Z,95545.63
2023-01-08T12:08:25.249Z,95544.56
2023-01-08T12:11:03.831Z,95546.03
2023-01-08T12:13:41.157Z,95542.53
2023-01-08T12:16:20.284Z,95545.19
2023-01-08T12:19:00.439Z,95545.13
2023-01-08T12:21:33.185Z,95544.72
2023-01-08T12:24:13.393Z,95554.56
2023-01-08T12:26:47.227Z,95557.31
2023-01-08T12:29:27.960Z,95556.31
2023-01-08T12:32:10.929Z,95551.34
2023-01-08T12:34:46.393Z,95547.53
2023-01-08T12:37:19.992Z,95539.28
2023-01-08T12:39:52.840Z,95530.59
2023-01-08T12:42:24.629Z,95534.88
2023-01-08T12:44:55.095Z,95529.84
2023-01-08T12:47:26.649Z,95530.09
2023-01-08T12:50:02.175Z,95528.63
2023-01-08T12:52:37.465Z,95527.94
2023-01-08T12:55:11.066Z,95521.47
2023-01-08T12:57:42.096Z,95517.31
2023-01-08T13:00:16.543Z,95514.81
2023-01-08T13:02:51.469Z,95510.25
2023-01-08T13:05:32.249Z,95502.97
2023-01-08T13:08:02.410Z,95492.47
2023-01-08T13:10:36.408Z,95484.28
2023-01-08T13:13:06.200Z,95486.22
2023-01-08T13:15:35.704Z,95475.97
2023-01-08T13:18:08.643Z,95484.25
2023-01-08T13:20:37.325Z,95485.56
2023-01-08T13:23:07.140Z,95476.41
2023-01-08T13:25:36.830Z,95473.44
2023-01-08T13:28:24.253Z,95468.47
2023-01-08T13:30:53.410Z,95462.22
2023-01-08T13:33:27.481Z,95460.81
2023-01-08T13:36:15.400Z,95455.03
2023-01-08T13:38:46.051Z,95462.31
2023-01-08T13:41:31.870Z,95459.59
2023-01-08T13:44:04.388Z,95449.50
2023-01-08T13:46:33.784Z,95444.97
2023-01-08T13:49:03.894Z,95452.06
2023-01-08T13:51:35.371Z,95439.28
2023-01-08T13:54:16.339Z,95451.38
2023-01-08T13:56:46.320Z,95444.94
2023-01-08T13:59:22.547Z,95439.63
2023-01-08T14:01:56.635Z,95440.03
2023-01-08T14:04:25.678Z,95442.44
2023-01-08T14:06:54.057Z,95441.78
2023-01-08T14:09:26.217Z,95437.28
2023-01-08T14:11:56.557Z,95449.78
2023-01-08T14:14:25.382Z,95449.81
2023-01-08T14:16:55.451Z,95447.78
2023-01-08T14:19:25.902Z,95442.00
2023-01-08T14:21:56.301Z,95440.19
2023-01-08T14:24:26.869Z,95453.97
2023-01-08T14:26:57.439Z,95463.75
2023-01-08T14:29:27.695Z,95474.50
2023-01-08T14:31:57.620Z,95462.13
2023-01-08T14:34:30.522Z,95464.63
2023-01-08T14:36:58.932Z,95464.72
2023-01-08T14:39:34.791Z,95471.63
2023-01-08T14:42:24.317Z,95467.47
2023-01-08T14:44:55.463Z,95480.59
2023-01-08T14:47:27.169Z,95475.13
2023-01-08T14:49:55.552Z,95470.09
2023-01-08T14:52:24.032Z,95473.13
2023-01-08T14:54:56.211Z,95462.78
2023-01-08T14:57:24.609Z,95460.34
2023-01-08T14:59:54.979Z,95462.19
2023-01-08T15:02:27.425Z,95449.66
2023-01-08T15:05:03.381Z,95461.19
2023-01-08T15:07:31.701Z,95454.34
2023-01-08T15:10:02.529Z,95460.03
2023-01-08T15:12:32.419Z,95455.16
2023-01-08T15:15:10.945Z,95449.34
2023-01-08T15:17:40.916Z,95449.78
2023-01-08T15:20:17.713Z,95433.19
2023-01-08T15:22:46.167Z,95430.19
2023-01-08T15:25:19.406Z,95424.25
2023-01-08T15:27:53.319Z,95433.13
2023-01-08T15:30:26.705Z,95424.59
2023-01-08T15:32:55.030Z,95430.78
2023-01-08T15:35:25.791Z,95430.38
2023-01-08T15:37:54.224Z,95422.81
2023-01-08T15:40:24.017Z,95427.88
2023-01-08T15:43:10.149Z,95416.03
2023-01-08T15:45:39.981Z,95412.28
2023-01-08T15:48:08.955Z,95406.59
2023-01-08T15:50:38.952Z,95414.22
2023-01-08T15:53:09.066Z,95412.38
2023-01-08T15:55:38.759Z,95411.72
2023-01-08T15:58:06.982Z,95411.31
2023-01-08T16:00:35.306Z,95415.66
2023-01-08T16:03:07.213Z,95409.50
2023-01-08T16:05:36.407Z,95402.41
2023-01-08T16:08:05.492Z,95396.31
2023-01-08T16:10:34.590Z,95386.56
2023-01-08T16:13:04.305Z,95381.88
2023-01-08T16:15:32.722Z,95381.72
2023-01-08T16:18:01.303Z,95384.06
2023-01-08T16:20:29.632Z,95381.09
2023-01-08T16:22:57.963Z,95372.38
2023-01-08T16:25:26.267Z,95374.75
2023-01-08T16:27:54.555Z,95379.03
2023-01-08T16:30:24.509Z,95362.03
2023-01-08T16:32:53.474Z,95365.50
2023-01-08T16:35:22.789Z,95345.88
2023-01-08T16:37:51.034Z,95343.31
2023-01-08T16:40:19.506Z,95341.00
2023-01-08T16:42:47.748Z,95343.31
2023-01-08T16:45:16.052Z,95331.06
2023-01-08T16:47:45.698Z,95341.16
2023-01-08T16:50:14.205Z,95327.06
2023-01-08T16:52:42.654Z,95313.78
2023-01-08T16:55:11.831Z,95302.59
2023-01-08T16:57:40.125Z,95302.94
2023-01-08T17:00:09.568Z,95301.91
2023-01-08T17:02:38.971Z,95293.22
2023-01-08T17:05:09.526Z,95294.03
2023-01-08T17:07:37.823Z,95283.38
2023-01-08T17:10:07.297Z,95281.69
2023-01-08T17:12:35.571Z,95275.91
2023-01-08T17:15:04.110Z,95260.63
2023-01-08T17:17:32.429Z,95255.25
2023-01-08T17:20:00.855Z,95264.91
2023-01-08T17:22:30.531Z,95262.94
2023-01-08T17:24:58.775Z,95255.53
2023-01-08T17:27:27.090Z,95261.13
2023-01-08T17:29:55.439Z,95257.72
2023-01-08T17:32:23.758Z,95261.22
2023-01-08T17:34:51.981Z,95264.97
2023-01-08T17:37:20.259Z,95253.84
2023-01-08T17:39:50.592Z,95260.19
2023-01-08T17:42:28.314Z,95258.56
2023-01-08T17:44:58.247Z,95261.66
2023-01-08T17:47:27.038Z,95262.13
2023-01-08T17:49:56.834Z,95254.44
2023-01-08T17:52:26.461Z,95260.78
2023-01-08T17:54:57.188Z,95256.28
2023-01-08T17:57:26.548Z,95265.41
2023-01-08T17:59:54.821Z,95251.81
2023-01-08T18:02:23.290Z,95236.47
2023-01-08T18:04:51.642Z,95238.09
2023-01-08T18:07:20.036Z,95244.56
2023-01-08T18:09:49.354Z,95233.06
2023-01-08T18:12:19.048Z,95224.34
2023-01-08T18:14:47.356Z,95222.88
2023-01-08T18:17:15.739Z,95214.28
2023-01-08T18:19:44.103Z,95207.34
2023-01-08T18:22:12.840Z,95207.16
2023-01-08T18:24:41.174Z,95200.22
2023-01-08T18:27:09.486Z,95207.94
2023-01-08T18:29:39.133Z,95203.53
2023-01-08T18:32:07.536Z,95198.09
2023-01-08T18:34:36.165Z,95186.06
2023-01-08T18:37:04.595Z,95173.22
2023-01-08T18:39:33.404Z,95156.88
2023-01-08T18:42:19.469Z,95159.41
2023-01-08T18:44:52.613Z,95159.09
2023-01-08T18:47:21.155Z,95158.66
2023-01-08T18:49:49.482Z,95167.28
2023-01-08T18:52:17.911Z,95161.75
2023-01-08T18:54:46.365Z,95164.59
2023-01-08T18:57:14.730Z,95165.09
2023-01-08T18:59:43.123Z,95160.31
2023-01-08T19:02:18.889Z,95159.19
2023-01-08T19:04:47.539Z,95154.19
2023-01-08T19:07:15.928Z,95152.13
2023-01-08T19:09:44.755Z,95146.34
2023-01-08T19:12:13.036Z,95123.69
2023-01-08T19:14:41.770Z,95130.91
2023-01-08T19:17:10.325Z,95126.97
2023-01-08T19:19:39.924Z,95118.25
2023-01-08T19:22:08.191Z,95114.84
2023-01-08T19:24:38.031Z,95114.31
2023-01-08T19:27:08.169Z,95101.88
2023-01-08T19:29:36.496Z,95103.19
2023-01-08T19:32:05.223Z,95095.28
2023-01-08T19:34:33.497Z,95086.38
2023-01-08T19:37:03.218Z,95073.78
2023-01-08T19:39:31.580Z,95066.06
2023-01-08T19:42:17.581Z,95061.63
2023-01-08T19:44:46.030Z,95052.09
2023-01-08T19:47:14.373Z,95056.69
2023-01-08T19:49:47.516Z,95057.69
2023-01-08T19:52:17.428Z,95045.91
2023-01-08T19:54:45.919Z,95043.59
2023-01-08T19:57:14.255Z,95042.41
2023-01-08T19:59:42.554Z,95052.44
2023-01-08T20:02:12.067Z,95040.75
2023-01-08T20:04:42.106Z,95042.53
2023-01-08T20:07:10.773Z,95035.84
2023-01-08T20:09:40.468Z,95024.53
2023-01-08T20:12:09.111Z,95017.97
2023-01-08T20:14:37.407Z,95016.16
2023-01-08T20:17:05.711Z,95009.47
2023-01-08T20:19:34.881Z,95001.56
2023-01-08T20:22:03.146Z,94991.53
2023-01-08T20:24:31.557Z,94991.72
2023-01-08T20:27:01.183Z,94981.69
2023-01-08T20:29:29.926Z,94975.63
2023-01-08T20:31:59.506Z,94980.88
2023-01-08T20:34:27.902Z,94985.81
2023-01-08T20:36:57.313Z,94980.72
2023-01-08T20:39:25.617Z,94981.97
2023-01-08T20:41:55.904Z,94974.47
2023-01-08T20:44:33.399Z,94967.56
2023-01-08T20:47:01.730Z,94965.59
2023-01-08T20:49:30.025Z,94969.09
2023-01-08T20:52:00.191Z,94968.06
2023-01-08T20:54:29.117Z,94970.22
2023-01-08T20:56:57.755Z,94976.59
2023-01-08T20:59:26.763Z,94978.25
2023-01-08T21:01:57.127Z,94967.75
2023-01-08T21:04:25.753Z,94964.28
2023-01-08T21:06:54.139Z,94959.34
2023-01-08T21:09:22.384Z,94953.94
2023-01-08T21:11:50.787Z,94948.25
2023-01-08T21:14:19.074Z,94954.66
2023-01-08T21:16:48.029Z,94958.34
2023-01-08T21:19:17.742Z,94955.28
2023-01-08T21:21:46.892Z,94964.63
2023-01-08T21:24:15.928Z,94959.59
2023-01-08T21:26:45.824Z,94963.34
2023-01-08T21:29:14.854Z,94959.38
2023-01-08T21:31:43.428Z,94954.13
2023-01-08T21:34:12.620Z,94952.44
2023-01-08T21:36:42.520Z,94944.75
2023-01-08T21:39:11.292Z,94942.00
2023-01-08T21:41:57.244Z,94939.66
2023-01-08T21:44:43.421Z,94936.53
2023-01-08T21:47:14.707Z,94927.97
2023-01-08T21:49:43.769Z,94928.41
2023-01-08T21:52:31.395Z,94925.19
2023-01-08T21:54:59.787Z,94917.06
2023-01-08T21:57:29.156Z,94910.06
2023-01-08T21:59:57.994Z,94920.31
2023-01-08T22:02:26.599Z,94913.13
2023-01-08T22:04:56.243Z,94913.06
2023-01-08T22:07:26.392Z,94909.69
2023-01-08T22:09:54.994Z,94902.75
2023-01-08T22:12:24.179Z,94908.47
2023-01-08T22:14:53.949Z,94905.72
2023-01-08T22:17:22.703Z,94906.75
2023-01-08T22:19:50.997Z,94903.22
2023-01-08T22:22:19.467Z,94902.53
2023-01-08T22:24:49.078Z,94901.66
2023-01-08T22:27:17.450Z,94893.66
2023-01-08T22:29:45.681Z,94894.53
2023-01-08T22:32:13.919Z,94880.16
2023-01-08T22:34:42.266Z,94875.06
2023-01-08T22:37:10.504Z,94870.22
2023-01-08T22:39:38.736Z,94864.16
2023-01-08T22:42:08.877Z,94850.56
2023-01-08T22:44:37.388Z,94855.09
2023-01-08T22:47:06.166Z,94852.38
2023-01-08T22:49:34.559Z,94841.06
2023-01-08T22:52:03.032Z,94833.38
2023-01-08T22:54:31.362Z,94825.28
2023-01-08T22:56:59.678Z,94809.41
2023-01-08T22:59:29.316Z,94805.34
2023-01-08T23:01:57.683Z,94800.59
2023-01-08T23:04:25.984Z,94804.13
2023-01-08T23:06:54.281Z,94798.09
2023-01-08T23:09:22.544Z,94782.22
2023-01-08T23:11:50.821Z,94785.63
2023-01-08T23:14:19.157Z,94781.06
2023-01-08T23:16:48.832Z,94764.34
2023-01-08T23:19:17.181Z,94767.47
2023-01-08T23:21:45.399Z,94754.09
2023-01-08T23:24:14.818Z,94752.47
2023-01-08T23:26:43.625Z,94745.63
2023-01-08T23:29:11.979Z,94734.94
2023-01-08T23:31:40.345Z,94738.50
2023-01-08T23:34:10.182Z,94731.78
2023-01-08T23:36:38.556Z,94725.59
2023-01-08T23:39:06.879Z,94725.50
2023-01-08T23:41:35.444Z,94728.75
2023-01-08T23:44:06.211Z,94721.97
2023-01-08T23:46:35.182Z,94730.16
2023-01-08T23:49:03.492Z,94733.50
2023-01-08T23:51:33.145Z,94728.84
2023-01-08T23:54:01.425Z,94720.09
2023-01-08T23:56:29.954Z,94719.38
2023-01-08T23:58:59.000Z,94731.38
